Pangborn Memorial Airport
KEAT : now visible

Airfield :











YOU CAN JOIN US ON...

 
LOGIN :

Register | Disclaimer

   EN    FR    IT 

 









Legend :    VFR   Marginal VFR   IFR   Intensive IFR   Very Intensive IFR
Visi :
Ceiling :
>= 8 km
>= 3000ft
5 to 8 km
1000 to 3000 ft
1500m to 5 km
500 to 1000 ft
800 to 1500m
200 to 500 ft
< 800m
< 200 ft
Symbols :   Thunderstorms  Fog  Heavy snow  Heavy precipitations  Wind > 20 kt







- Airport Elevation : 1249 ft


KEAT - Pangborn Memorial

CURRENT METAR :
  • 250055Z AUTO 13009KT 10SM CLR 24/02 A2981 RMK AO2 SLP088 T02440022

EXPIRED METARs :
  • 242355Z AUTO 12012KT 10SM CLR 24/03 A2982 RMK AO2 SLP092 T02390028 10239 20183 56019
  • 242255Z AUTO 12011KT 10SM CLR 23/03 A2983 RMK AO2 SLP098 T02330028

TAF KEAT
Valid from the 25 at 00:00 until the 26 at 00:00 UTC


242326Z 2500/2524 13010KT P6SM FEW070 SCT250
FM250500 31010KT P6SM SCT250
FM251400 29006KT P6SM SCT250
FM251900 15005KT P6SM SCT250
KZSE FIR / North America



MET'MAP, your aeronautical weather chart ! - Copyright ORBIFLY December 2007 - Disclaimer

ORBIFLY MET'MAP TEAM :

Programming & Development : Alexandra Zaïnal
Concept & Development : Baudouin d'Aumeries
Co-Development & Prog : Marc-Olivier Méhu
Technical & hardware support : Manuel Goepfert

Contact : metmap@orbifly.com




SOURCES & CREDITS :

   NOAA       Earth
Advisory